Time;durP1;ratioP1;P1;durP2;ratioP2;P2;SDS_P1;SDS_P2;PMS_P1;PMS_P2;Temp;Humidity;BMP_temperature;BMP_pressure;BME280_temperature;BME280_humidity;BME280_pressure;Samples;Min_cycle;Max_cycle;Signal;HPM_P1;HPM_P2
2022/09/22 00:01:12;;;;;;;5.20;2.80;;;;;;;11.35;54.06;100447.23;117143;1186;23461;-64
2022/09/22 00:03:42;;;;;;;;;;;;;;;11.35;54.31;100444.06;117129;1187;23558;-64
2022/09/22 00:06:10;;;;;;;6.90;2.60;;;;;;;11.35;54.33;100441.43;117088;1187;21856;-57
2022/09/22 00:08:40;;;;;;;5.70;2.80;;;;;;;11.35;53.96;100440.04;117127;1187;24162;-64
2022/09/22 00:11:11;;;;;;;5.70;2.60;;;;;;;11.34;54.23;100441.61;117170;1187;23545;-64
2022/09/22 00:13:38;;;;;;;4.60;2.60;;;;;;;11.33;54.17;100443.56;117193;1186;23569;-57
2022/09/22 00:16:09;;;;;;;5.30;2.60;;;;;;;11.32;54.13;100445.69;117082;1187;23570;-57
2022/09/22 00:18:37;;;;;;;4.50;2.50;;;;;;;11.30;54.09;100445.71;117079;1187;24163;-64
2022/09/22 00:21:06;;;;;;;4.90;3.30;;;;;;;11.28;54.04;100448.02;117271;1185;23661;-64
2022/09/22 00:23:33;;;;;;;5.40;3.00;;;;;;;11.26;54.03;100449.27;117103;1186;23506;-57
2022/09/22 00:26:07;;;;;;;4.20;2.70;;;;;;;11.23;53.98;100450.23;117115;1188;24704;-57
2022/09/22 00:28:34;;;;;;;6.10;3.20;;;;;;;11.20;54.11;100450.79;117146;1187;21865;-57
2022/09/22 00:31:10;;;;;;;3.70;2.30;;;;;;;11.16;53.80;100450.84;116971;1187;23579;-64
2022/09/22 00:33:39;;;;;;;5.00;2.60;;;;;;;11.11;53.93;100450.20;117271;1186;22938;-59
2022/09/22 00:36:06;;;;;;;3.80;2.50;;;;;;;11.07;53.81;100446.21;117254;1183;23672;-64
2022/09/22 00:38:33;;;;;;;4.50;2.80;;;;;;;11.01;53.89;100452.80;117268;1186;24158;-64
2022/09/22 00:41:00;;;;;;;4.20;2.60;;;;;;;10.96;53.76;100460.58;117262;1186;23554;-64
2022/09/22 00:43:29;;;;;;;4.50;2.60;;;;;;;10.90;53.66;100460.29;117050;1188;23442;-58
2022/09/22 00:45:59;;;;;;;5.80;2.90;;;;;;;10.83;53.80;100461.61;117118;1187;23557;-64
2022/09/22 00:48:27;;;;;;;4.20;2.80;;;;;;;10.76;53.77;100464.33;117265;1185;22985;-57
2022/09/22 00:50:55;;;;;;;6.90;2.90;;;;;;;10.65;53.61;100466.73;117237;1185;23579;-64
2022/09/22 00:53:22;;;;;;;4.70;2.70;;;;;;;10.51;53.72;100468.45;117032;1187;23458;-64
2022/09/22 00:55:55;;;;;;;5.00;2.80;;;;;;;10.41;53.57;100468.55;117000;1187;24216;-64
2022/09/22 00:58:27;;;;;;;6.40;3.80;;;;;;;10.34;53.66;100467.38;117196;1189;23584;-58
2022/09/22 01:00:56;;;;;;;6.50;3.30;;;;;;;10.30;54.05;100465.66;117403;1185;24239;-58
2022/09/22 01:03:25;;;;;;;5.70;3.10;;;;;;;10.27;54.05;100464.45;117034;1187;23486;-65
2022/09/22 01:05:57;;;;;;;5.50;2.90;;;;;;;10.25;53.83;100463.59;117093;1187;21856;-64
2022/09/22 01:08:25;;;;;;;5.80;3.60;;;;;;;10.21;54.02;100469.05;117163;1187;21867;-58
2022/09/22 01:10:53;;;;;;;4.80;3.20;;;;;;;10.20;54.11;100466.45;116997;1187;24249;-57
2022/09/22 01:13:25;;;;;;;5.90;2.70;;;;;;;10.19;54.07;100467.85;117032;1189;23482;-63
2022/09/22 01:16:29;;;;;;;5.70;3.50;;;;;;;10.18;54.17;100474.18;117102;1188;21892;-65
2022/09/22 01:19:21;;;;;;;5.00;2.90;;;;;;;10.12;54.08;100471.61;117134;1188;22925;-65
2022/09/22 01:21:52;;;;;;;5.50;3.40;;;;;;;10.10;54.04;100468.11;117198;1186;23558;-57
2022/09/22 01:24:25;;;;;;;6.90;4.10;;;;;;;9.99;54.03;100470.84;117111;1187;21865;-58
2022/09/22 01:27:06;;;;;;;6.20;3.20;;;;;;;9.93;54.15;100474.75;117114;1186;24185;-64
2022/09/22 01:30:04;;;;;;;6.30;3.50;;;;;;;9.87;54.19;100473.92;117112;1187;22498;-58
2022/09/22 01:32:34;;;;;;;5.60;3.20;;;;;;;9.85;54.25;100474.64;117250;1186;24236;-58
2022/09/22 01:35:05;;;;;;;6.60;3.50;;;;;;;9.85;54.15;100475.00;117335;1185;23472;-58
2022/09/22 01:37:43;;;;;;;6.00;3.70;;;;;;;9.84;54.18;100474.48;117363;1185;21854;-65
2022/09/22 01:40:19;;;;;;;5.30;3.30;;;;;;;9.80;54.12;100476.60;117272;1185;22326;-57
2022/09/22 01:42:52;;;;;;;6.90;3.70;;;;;;;9.73;53.90;100470.86;117067;1187;22951;-65
2022/09/22 01:45:21;;;;;;;8.00;3.40;;;;;;;9.67;53.93;100470.56;117238;1187;23573;-57
2022/09/22 01:47:54;;;;;;;5.60;3.50;;;;;;;9.63;53.95;100473.23;117354;1185;21865;-58
2022/09/22 01:50:29;;;;;;;5.70;3.10;;;;;;;9.57;53.99;100472.38;117154;1186;21863;-65
2022/09/22 01:52:58;;;;;;;6.10;3.30;;;;;;;9.47;53.80;100468.42;117143;1187;24282;-59
2022/09/22 01:55:34;;;;;;;7.80;3.60;;;;;;;9.40;53.98;100470.39;117338;1183;22942;-59
2022/09/22 01:58:05;;;;;;;6.40;3.40;;;;;;;9.36;54.01;100469.70;117137;1187;21917;-65
2022/09/22 02:00:34;;;;;;;5.60;3.60;;;;;;;9.29;53.99;100464.49;117138;1186;23681;-66
2022/09/22 02:03:09;;;;;;;6.60;3.20;;;;;;;9.22;54.13;100466.99;117325;1185;24157;-66
2022/09/22 02:05:44;;;;;;;5.70;3.60;;;;;;;9.18;54.46;100469.63;117355;1185;22996;-60
2022/09/22 02:08:21;;;;;;;6.50;3.10;;;;;;;9.19;54.53;100465.43;116976;1187;23006;-65
2022/09/22 02:10:48;;;;;;;8.50;3.40;;;;;;;9.19;54.50;100469.45;117065;1188;22725;-59
2022/09/22 02:13:15;;;;;;;7.00;3.30;;;;;;;9.19;54.49;100466.83;117061;1187;23519;-66
2022/09/22 02:16:01;;;;;;;6.80;3.40;;;;;;;9.18;54.32;100467.20;117078;1187;23488;-60
2022/09/22 02:18:33;;;;;;;6.70;3.10;;;;;;;9.19;54.50;100467.02;117172;1187;24750;-59
2022/09/22 02:21:00;;;;;;;7.20;3.20;;;;;;;9.20;54.50;100469.80;117076;1188;24180;-65
2022/09/22 02:23:28;;;;;;;5.00;2.90;;;;;;;9.21;54.34;100472.42;117253;1186;23554;-65
2022/09/22 02:25:55;;;;;;;5.10;2.70;;;;;;;9.18;54.13;100471.90;117201;1188;23585;-66
2022/09/22 02:28:23;;;;;;;9.80;3.20;;;;;;;9.14;54.22;100472.63;117132;1187;24179;-66
2022/09/22 02:30:50;;;;;;;7.20;3.30;;;;;;;9.08;54.09;100467.40;116888;1189;22736;-59
2022/09/22 02:33:38;;;;;;;7.30;3.30;;;;;;;9.00;54.08;100470.24;116981;1187;22557;-60
2022/09/22 02:36:31;;;;;;;5.40;3.10;;;;;;;8.95;54.28;100469.73;117029;1187;23656;-59
2022/09/22 02:39:00;;;;;;;6.00;2.80;;;;;;;8.89;54.33;100468.88;117111;1187;23647;-60
2022/09/22 02:41:49;;;;;;;7.20;3.20;;;;;;;8.84;54.44;100466.63;117107;1187;23614;-59
2022/09/22 02:44:23;;;;;;;6.90;2.90;;;;;;;8.80;54.77;100466.83;117002;1187;23558;-59
2022/09/22 02:47:00;;;;;;;5.40;2.90;;;;;;;8.80;55.04;100475.57;116885;1188;22613;-59
2022/09/22 02:49:29;;;;;;;7.10;3.00;;;;;;;8.84;54.98;100485.00;117096;1188;22929;-59
2022/09/22 02:51:56;;;;;;;7.60;3.40;;;;;;;8.86;54.98;100482.19;117124;1187;24221;-64
2022/09/22 02:54:24;;;;;;;5.60;3.20;;;;;;;8.82;55.04;100483.09;116968;1187;24175;-59
2022/09/22 02:56:53;;;;;;;5.80;3.50;;;;;;;8.71;55.12;100483.30;117126;1187;22929;-59
2022/09/22 02:59:20;;;;;;;6.90;4.20;;;;;;;8.63;55.23;100484.71;117074;1187;23553;-59
2022/09/22 03:01:47;;;;;;;7.10;3.90;;;;;;;8.61;55.50;100481.40;117049;1187;23608;-65
2022/09/22 03:04:14;;;;;;;7.50;3.40;;;;;;;8.61;55.53;100480.00;117082;1187;23554;-59
2022/09/22 03:06:41;;;;;;;7.00;3.20;;;;;;;8.61;55.68;100476.50;117164;1186;23638;-64
2022/09/22 03:09:09;;;;;;;7.70;3.10;;;;;;;8.62;55.90;100475.96;117064;1187;23691;-65
2022/09/22 03:11:37;;;;;;;5.50;3.10;;;;;;;8.66;55.87;100476.13;117317;1185;22831;-65
2022/09/22 03:14:03;;;;;;;7.70;3.50;;;;;;;8.70;55.84;100475.25;117157;1183;22931;-74
2022/09/22 03:16:30;;;;;;;6.20;3.40;;;;;;;8.74;55.99;100475.95;117165;1186;23579;-75
2022/09/22 03:18:58;;;;;;;6.90;3.70;;;;;;;8.80;55.86;100473.98;117184;1186;23567;-59
2022/09/22 03:21:26;;;;;;;5.50;2.90;;;;;;;8.86;55.93;100476.25;117209;1185;23615;-74
2022/09/22 03:23:53;;;;;;;10.90;3.20;;;;;;;8.94;55.96;100479.02;117101;1187;22807;-74
2022/09/22 03:26:20;;;;;;;10.80;3.40;;;;;;;9.00;55.88;100475.50;117377;1186;23601;-75
2022/09/22 03:28:47;;;;;;;5.60;3.00;;;;;;;9.08;55.81;100474.58;117088;1186;23577;-58
2022/09/22 03:31:14;;;;;;;6.80;3.70;;;;;;;9.15;55.94;100471.23;117048;1187;24154;-75
2022/09/22 03:33:42;;;;;;;9.40;3.20;;;;;;;9.22;55.95;100471.20;117310;1185;23661;-58
2022/09/22 03:36:09;;;;;;;6.20;3.40;;;;;;;9.30;55.96;100468.88;117149;1186;24162;-75
2022/09/22 03:38:36;;;;;;;7.00;3.60;;;;;;;9.37;55.92;100472.85;117293;1186;24317;-71
2022/09/22 03:41:04;;;;;;;11.90;3.30;;;;;;;9.42;56.00;100474.58;117123;1188;23567;-72
2022/09/22 03:43:31;;;;;;;6.90;3.20;;;;;;;9.48;55.81;100475.77;117048;1188;23919;-58
2022/09/22 03:45:59;;;;;;;7.20;3.40;;;;;;;9.51;55.77;100476.45;117165;1188;24213;-73
2022/09/22 03:48:27;;;;;;;4.80;3.10;;;;;;;9.50;55.75;100479.97;116958;1188;21854;-72
2022/09/22 03:50:55;;;;;;;5.00;2.70;;;;;;;9.44;55.60;100474.22;117231;1187;22716;-73
2022/09/22 03:53:22;;;;;;;4.40;2.70;;;;;;;9.42;55.63;100473.19;117382;1185;21869;-73
2022/09/22 03:55:50;;;;;;;7.00;3.20;;;;;;;9.43;55.64;100471.60;117162;1186;23668;-73
2022/09/22 03:58:19;;;;;;;7.40;3.30;;;;;;;9.43;55.48;100468.10;117104;1188;23556;-58
2022/09/22 04:00:47;;;;;;;7.00;3.30;;;;;;;9.43;55.47;100469.85;117257;1186;23586;-72
2022/09/22 04:03:16;;;;;;;4.30;2.50;;;;;;;9.43;55.61;100470.90;117103;1188;21856;-58
2022/09/22 04:05:51;;;;;;;4.90;2.70;;;;;;;9.45;55.78;100470.35;117240;1188;23566;-72
2022/09/22 04:08:19;;;;;;;5.10;2.70;;;;;;;9.50;55.74;100466.48;117293;1185;23564;-57
2022/09/22 04:10:45;;;;;;;5.30;2.80;;;;;;;9.55;55.72;100466.08;117284;1186;23595;-58
2022/09/22 04:13:14;;;;;;;6.10;2.60;;;;;;;9.60;55.96;100464.84;117188;1188;21859;-72
2022/09/22 04:15:41;;;;;;;4.80;2.70;;;;;;;9.64;55.98;100471.27;117211;1185;23647;-58
2022/09/22 04:18:09;;;;;;;6.00;3.10;;;;;;;9.71;56.49;100470.36;117299;1185;23550;-58
2022/09/22 04:20:38;;;;;;;5.40;2.70;;;;;;;9.75;56.71;100464.89;117373;1185;23553;-73
2022/09/22 04:23:05;;;;;;;4.00;2.70;;;;;;;9.85;56.70;100466.23;117197;1187;22925;-59
2022/09/22 04:25:31;;;;;;;7.10;2.90;;;;;;;9.93;57.29;100464.92;117320;1186;21970;-58
2022/09/22 04:27:58;;;;;;;6.20;3.10;;;;;;;10.00;57.34;100460.66;117261;1186;23554;-58
2022/09/22 04:30:32;;;;;;;3.80;2.70;;;;;;;10.07;57.74;100460.61;117323;1185;23566;-75
2022/09/22 04:33:00;;;;;;;8.30;3.10;;;;;;;10.15;58.29;100462.48;117030;1185;21852;-58
2022/09/22 04:35:27;;;;;;;5.20;3.30;;;;;;;10.20;58.28;100464.34;117268;1185;23554;-74
2022/09/22 04:37:55;;;;;;;8.30;4.20;;;;;;;10.28;58.18;100465.31;117283;1185;22111;-58
2022/09/22 04:40:22;;;;;;;8.30;4.50;;;;;;;10.36;58.51;100462.09;117146;1187;22574;-74
2022/09/22 04:42:50;;;;;;;7.50;3.90;;;;;;;10.47;59.01;100464.46;117144;1187;21857;-58
2022/09/22 04:45:17;;;;;;;8.40;4.80;;;;;;;10.58;58.67;100462.59;117072;1187;23549;-75
2022/09/22 04:47:46;;;;;;;7.70;4.50;;;;;;;10.68;59.27;100462.48;117144;1187;23558;-76
2022/09/22 04:50:13;;;;;;;7.70;4.50;;;;;;;10.80;58.94;100461.98;117011;1187;24289;-77
2022/09/22 04:52:46;;;;;;;7.30;4.30;;;;;;;10.93;59.34;100464.30;116998;1187;24236;-58
2022/09/22 04:55:14;;;;;;;7.00;3.70;;;;;;;11.06;58.68;100460.98;117061;1186;24232;-77
2022/09/22 04:57:55;;;;;;;7.80;4.20;;;;;;;11.19;59.41;100462.05;117135;1187;24265;-74
2022/09/22 05:00:25;;;;;;;7.60;4.80;;;;;;;11.33;59.09;100461.13;117027;1187;23564;-59
2022/09/22 05:02:52;;;;;;;8.90;4.40;;;;;;;11.46;58.93;100462.88;117149;1188;22999;-58
2022/09/22 05:05:19;;;;;;;8.80;4.40;;;;;;;11.61;58.68;100460.91;117265;1185;24781;-58
2022/09/22 05:07:47;;;;;;;7.40;4.20;;;;;;;11.75;58.32;100462.80;117195;1188;23455;-77
2022/09/22 05:10:18;;;;;;;10.60;3.90;;;;;;;11.88;58.16;100459.59;117166;1188;21867;-77
2022/09/22 05:12:45;;;;;;;10.10;4.30;;;;;;;12.01;57.95;100461.35;117245;1186;24155;-58
2022/09/22 05:15:15;;;;;;;7.70;3.70;;;;;;;12.13;58.34;100461.67;117294;1186;21856;-58
2022/09/22 05:17:48;;;;;;;6.10;3.80;;;;;;;12.25;58.30;100463.94;117151;1186;24233;-75
2022/09/22 05:20:17;;;;;;;6.70;3.80;;;;;;;12.37;58.53;100461.09;116993;1187;22121;-74
2022/09/22 05:22:44;;;;;;;9.30;4.20;;;;;;;12.51;58.14;100461.52;117892;1186;22928;-79
2022/09/22 05:25:12;;;;;;;21.90;4.90;;;;;;;12.65;58.00;100460.73;117001;1187;22022;-61
2022/09/22 05:27:47;;;;;;;43.90;7.10;;;;;;;12.82;57.72;100465.85;117200;1187;21866;-75
2022/09/22 05:30:16;;;;;;;31.30;5.20;;;;;;;12.98;57.54;100462.89;117102;1188;22924;-60
2022/09/22 05:32:44;;;;;;;23.30;5.50;;;;;;;13.11;58.01;100462.61;117191;1188;23452;-61
2022/09/22 05:35:13;;;;;;;14.90;4.70;;;;;;;13.26;57.93;100463.52;117212;1188;21858;-59
2022/09/22 05:37:41;;;;;;;6.20;4.20;;;;;;;13.38;57.72;100466.61;117159;1188;22912;-76
2022/09/22 05:40:09;;;;;;;16.50;4.20;;;;;;;13.48;57.15;100466.77;117233;1187;24175;-59
2022/09/22 05:42:50;;;;;;;8.00;3.80;;;;;;;13.56;57.25;100466.06;117084;1188;23455;-74
2022/09/22 05:45:19;;;;;;;5.30;3.80;;;;;;;13.65;57.24;100462.68;116962;1187;21868;-75
2022/09/22 05:47:46;;;;;;;7.40;4.00;;;;;;;13.74;57.14;100462.47;119110;1187;21750;-59
2022/09/22 05:50:13;;;;;;;6.30;4.10;;;;;;;13.85;57.20;100465.19;119231;1186;21970;-59
2022/09/22 05:52:41;;;;;;;5.70;4.20;;;;;;;13.96;57.17;100464.38;119288;1186;21839;-58
2022/09/22 05:55:11;;;;;;;5.70;4.10;;;;;;;14.10;57.20;100462.11;119274;1185;21821;-58
2022/09/22 05:57:38;;;;;;;7.00;4.60;;;;;;;14.22;57.05;100456.88;119172;1185;21792;-58
2022/09/22 06:00:06;;;;;;;6.80;4.20;;;;;;;14.33;56.82;100458.34;117472;1187;22531;-58
2022/09/22 06:02:35;;;;;;;5.60;3.90;;;;;;;14.44;56.89;100458.20;117153;1188;21848;-58
2022/09/22 06:05:02;;;;;;;5.30;3.70;;;;;;;14.54;56.66;100459.89;117072;1187;21855;-77
2022/09/22 06:07:32;;;;;;;5.30;3.80;;;;;;;14.62;56.53;100461.08;117343;1185;23545;-75
2022/09/22 06:09:59;;;;;;;16.40;7.70;;;;;;;14.72;56.60;100465.95;117289;1185;24145;-58
2022/09/22 06:12:27;;;;;;;14.80;8.20;;;;;;;14.83;56.67;100470.61;117401;1185;23452;-75
2022/09/22 06:14:55;;;;;;;20.00;9.60;;;;;;;14.94;56.66;100471.18;117302;1185;23493;-76
2022/09/22 06:17:23;;;;;;;14.70;8.10;;;;;;;15.05;56.29;100474.20;117322;1189;21855;-58
2022/09/22 06:19:51;;;;;;;22.10;8.10;;;;;;;15.18;56.47;100474.55;117244;1185;23579;-75
2022/09/22 06:22:18;;;;;;;13.10;5.20;;;;;;;15.35;56.57;100474.20;117308;1185;23692;-73
2022/09/22 06:24:45;;;;;;;9.10;4.70;;;;;;;15.54;56.37;100477.87;117314;1185;23554;-58
2022/09/22 06:27:13;;;;;;;19.70;5.20;;;;;;;15.71;56.20;100473.08;117361;1185;22982;-59
2022/09/22 06:29:40;;;;;;;20.60;5.60;;;;;;;15.84;55.81;100476.38;117386;1185;23184;-58
2022/09/22 06:32:08;;;;;;;12.70;4.70;;;;;;;15.93;55.51;100477.52;117301;1185;23647;-57
2022/09/22 06:34:37;;;;;;;7.20;3.60;;;;;;;16.06;55.77;100478.91;117296;1185;22705;-58
2022/09/22 06:37:07;;;;;;;9.40;4.20;;;;;;;16.19;55.34;100480.58;117306;1185;22828;-58
2022/09/22 06:39:36;;;;;;;11.60;4.60;;;;;;;16.32;55.30;100479.25;117322;1185;23579;-79
2022/09/22 06:42:05;;;;;;;;;;;;;;;16.42;55.10;100481.54;117158;1188;22925;-75
2022/09/22 06:44:32;;;;;;;5.60;3.50;;;;;;;16.50;54.92;100480.38;117272;1185;23596;-76
2022/09/22 06:47:04;;;;;;;11.50;3.80;;;;;;;16.63;54.74;100475.13;117246;1185;23554;-76
2022/09/22 06:49:31;;;;;;;7.30;3.40;;;;;;;16.74;54.54;100477.59;117338;1185;22715;-75
2022/09/22 06:51:57;;;;;;;11.60;3.80;;;;;;;16.84;54.69;100474.73;117278;1185;23537;-59
2022/09/22 06:54:25;;;;;;;19.40;7.80;;;;;;;16.98;54.57;100478.50;117286;1185;24235;-76
2022/09/22 06:56:52;;;;;;;15.20;7.90;;;;;;;17.19;54.88;100482.17;117296;1186;23550;-58
2022/09/22 06:59:19;;;;;;;24.60;8.60;;;;;;;17.43;54.68;100486.58;117316;1185;23474;-59
2022/09/22 07:01:46;;;;;;;239.90;99.60;;;;;;;17.63;54.47;100487.03;117348;1185;24162;-74
2022/09/22 07:04:14;;;;;;;197.50;95.10;;;;;;;17.81;54.46;100486.66;117273;1186;21854;-59
2022/09/22 07:06:42;;;;;;;161.30;74.10;;;;;;;17.93;53.73;100481.00;117211;1187;24185;-76
2022/09/22 07:09:11;;;;;;;80.00;38.40;;;;;;;18.00;53.87;100475.07;117204;1187;23633;-59
2022/09/22 07:11:39;;;;;;;34.00;17.00;;;;;;;18.13;53.78;100467.27;117197;1187;21863;-79
2022/09/22 07:14:07;;;;;;;113.30;29.20;;;;;;;18.25;53.60;100466.41;117080;1188;23488;-76
2022/09/22 07:16:34;;;;;;;38.30;14.30;;;;;;;18.36;53.23;100466.45;117130;1187;21871;-61
2022/09/22 07:19:08;;;;;;;68.50;27.60;;;;;;;18.47;52.98;100465.64;117249;1188;22925;-61
2022/09/22 07:21:36;;;;;;;54.80;23.50;;;;;;;18.54;53.02;100465.84;117068;1187;22927;-78
2022/09/22 07:24:06;;;;;;;51.10;17.70;;;;;;;18.65;52.90;100459.33;116938;1188;21863;-60
2022/09/22 07:26:34;;;;;;;;;;;;;;;18.83;52.85;100457.98;117110;1190;21843;-61
2022/09/22 07:29:07;;;;;;;26.20;10.60;;;;;;;19.09;53.00;100458.29;117037;1187;21861;-60
2022/09/22 07:31:35;;;;;;;14.70;6.40;;;;;;;19.41;52.84;100459.08;117080;1186;21853;-61
2022/09/22 07:34:02;;;;;;;17.90;8.00;;;;;;;19.71;52.46;100454.77;116947;1187;23582;-60
2022/09/22 07:36:31;;;;;;;11.40;4.80;;;;;;;19.96;51.70;100451.63;117107;1187;24220;-79
2022/09/22 07:39:06;;;;;;;9.60;4.90;;;;;;;20.17;51.47;100450.92;116959;1187;21862;-80
2022/09/22 07:41:41;;;;;;;5.90;2.90;;;;;;;20.44;50.67;100444.71;117022;1187;21861;-60
2022/09/22 07:46:57;;;;;;;6.40;2.60;;;;;;;20.81;49.58;100445.12;117126;1187;24158;-78
2022/09/22 07:49:25;;;;;;;4.90;2.60;;;;;;;20.92;49.60;100444.88;116907;1188;22936;-79
2022/09/22 07:51:56;;;;;;;6.90;2.90;;;;;;;20.98;49.14;100437.79;117019;1187;23556;-61
2022/09/22 07:54:24;;;;;;;5.80;3.20;;;;;;;21.07;49.14;100431.05;117302;1185;24176;-80
2022/09/22 07:56:56;;;;;;;7.90;2.80;;;;;;;21.16;48.05;100434.69;117222;1186;24247;-61
2022/09/22 07:59:23;;;;;;;5.40;2.20;;;;;;;21.36;48.76;100434.99;117833;1188;24825;-79
2022/09/22 08:01:51;;;;;;;5.30;2.10;;;;;;;21.51;48.26;100437.17;116995;1186;23168;-78
2022/09/22 08:04:21;;;;;;;3.00;1.80;;;;;;;21.66;48.17;100435.98;117320;1185;21852;-77
2022/09/22 08:06:54;;;;;;;13.20;2.60;;;;;;;21.88;47.94;100435.63;117216;1182;22322;-74
2022/09/22 08:09:23;;;;;;;8.40;2.30;;;;;;;22.23;48.27;100434.05;117117;1186;21841;-75
2022/09/22 08:11:51;;;;;;;8.80;2.20;;;;;;;22.73;48.71;100425.52;117217;1186;22910;-79
2022/09/22 08:14:21;;;;;;;3.40;2.20;;;;;;;23.11;47.97;100417.92;117152;1186;21858;-72
2022/09/22 08:16:50;;;;;;;6.60;2.20;;;;;;;23.34;46.76;100421.11;117273;1186;23476;-61
2022/09/22 08:19:17;;;;;;;4.10;1.60;;;;;;;23.58;46.95;100420.67;117329;1188;23653;-61
2022/09/22 08:21:46;;;;;;;3.50;1.90;;;;;;;23.74;44.97;100422.64;117121;1185;23444;-78
2022/09/22 08:24:21;;;;;;;5.70;1.90;;;;;;;23.78;44.91;100424.56;117068;1188;23815;-61
2022/09/22 08:26:51;;;;;;;6.30;1.90;;;;;;;23.81;44.85;100423.22;117037;1187;21851;-62
2022/09/22 08:29:19;;;;;;;10.10;2.40;;;;;;;23.93;45.20;100423.16;117342;1187;24170;-79
2022/09/22 08:31:48;;;;;;;5.20;2.60;;;;;;;24.07;44.47;100429.80;117026;1188;23661;-75
2022/09/22 08:34:15;;;;;;;5.80;3.20;;;;;;;24.19;44.19;100425.02;117203;1186;21868;-61
2022/09/22 08:36:45;;;;;;;4.60;2.40;;;;;;;24.40;44.33;100422.38;117068;1188;23561;-61
2022/09/22 08:39:13;;;;;;;2.90;1.70;;;;;;;24.52;43.38;100413.05;117272;1186;23595;-61
2022/09/22 08:41:58;;;;;;;1.90;1.20;;;;;;;24.52;42.62;100407.31;117136;1185;21915;-81
2022/09/22 08:44:28;;;;;;;4.00;2.00;;;;;;;24.42;42.15;100401.77;117293;1186;23555;-77
2022/09/22 08:46:58;;;;;;;;;;;;;;;24.17;41.45;100403.45;117887;1187;22925;-61
2022/09/22 08:52:37;;;;;;;3.80;1.70;;;;;;;23.70;42.46;100397.86;117158;1186;21872;-61
2022/09/22 08:55:10;;;;;;;3.70;1.40;;;;;;;23.63;41.75;100387.74;117020;1187;23716;-77
2022/09/22 08:57:55;;;;;;;3.20;1.70;;;;;;;23.67;41.40;100382.83;117080;1185;23554;-80
2022/09/22 09:00:23;;;;;;;2.80;1.70;;;;;;;23.75;42.37;100383.52;117079;1187;23570;-79
2022/09/22 09:02:59;;;;;;;2.50;1.70;;;;;;;23.76;41.49;100378.06;117245;1188;23630;-61
2022/09/22 09:05:39;;;;;;;1.90;1.40;;;;;;;23.76;41.62;100374.67;117190;1183;23576;-77
2022/09/22 09:08:18;;;;;;;5.40;3.80;;;;;;;23.93;41.25;100376.60;117287;1183;21867;-78
2022/09/22 09:10:56;;;;;;;7.10;4.00;;;;;;;24.23;42.27;100380.09;117074;1187;23582;-76
2022/09/22 09:13:31;;;;;;;7.40;2.70;;;;;;;24.44;42.01;100379.20;117039;1187;23653;-78
2022/09/22 09:16:18;;;;;;;6.40;2.10;;;;;;;24.46;41.15;100367.02;117267;1186;23555;-77
2022/09/22 09:18:56;;;;;;;4.20;1.60;;;;;;;24.58;39.99;100366.87;117223;1186;23473;-80
2022/09/22 09:21:22;;;;;;;3.10;1.50;;;;;;;24.65;38.36;100368.92;117079;1187;23557;-61
2022/09/22 09:23:51;;;;;;;2.30;1.70;;;;;;;24.47;38.92;100373.95;117149;1188;23598;-76
2022/09/22 09:26:40;;;;;;;4.80;1.80;;;;;;;24.27;40.36;100373.94;117181;1184;21912;-76
2022/09/22 09:29:07;;;;;;;3.00;1.30;;;;;;;24.25;40.91;100369.44;117225;1186;22944;-71
2022/09/22 09:31:40;;;;;;;2.60;1.50;;;;;;;24.39;40.97;100369.67;117111;1187;24249;-75
2022/09/22 09:34:11;;;;;;;2.70;1.40;;;;;;;24.68;40.59;100370.52;117304;1185;21960;-62
2022/09/22 09:36:40;;;;;;;4.80;1.40;;;;;;;24.83;40.08;100370.34;117344;1185;21865;-77
2022/09/22 09:39:17;;;;;;;4.10;1.90;;;;;;;24.78;39.76;100371.25;117098;1187;21859;-74
2022/09/22 09:41:48;;;;;;;2.40;1.30;;;;;;;24.60;39.68;100380.21;117164;1187;23468;-77
2022/09/22 09:44:17;;;;;;;5.90;1.30;;;;;;;24.42;40.17;100384.91;116988;1187;22625;-73
2022/09/22 09:47:04;;;;;;;1.90;1.20;;;;;;;24.24;39.88;100390.08;117126;1188;21851;-74
2022/09/22 09:49:32;;;;;;;2.90;1.20;;;;;;;24.01;39.63;100387.52;117200;1183;22981;-60
2022/09/22 09:52:00;;;;;;;3.80;1.50;;;;;;;23.83;39.66;100389.11;117275;1186;23550;-60
2022/09/22 09:54:27;;;;;;;3.40;1.70;;;;;;;23.68;40.13;100388.65;117212;1189;22646;-62
2022/09/22 09:57:09;;;;;;;3.20;1.90;;;;;;;23.51;40.29;100392.46;116997;1187;24184;-74
2022/09/22 10:02:28;;;;;;;7.10;2.80;;;;;;;23.08;40.23;100391.84;117075;1187;23858;-62
2022/09/22 10:05:00;;;;;;;4.10;1.70;;;;;;;22.99;40.19;100385.60;117008;1187;22908;-61
2022/09/22 10:07:29;;;;;;;3.10;1.50;;;;;;;22.93;40.32;100385.06;117110;1184;22652;-60
2022/09/22 10:10:22;;;;;;;4.40;2.00;;;;;;;22.97;39.92;100389.27;117314;1188;22712;-75
2022/09/22 10:12:51;;;;;;;2.80;1.50;;;;;;;22.94;40.30;100393.09;117206;1187;21862;-60
2022/09/22 10:15:23;;;;;;;2.80;1.40;;;;;;;22.81;39.82;100397.28;117233;1182;22926;-77
2022/09/22 10:17:52;;;;;;;2.40;1.50;;;;;;;22.60;39.66;100388.77;117140;1185;21857;-74
2022/09/22 10:20:25;;;;;;;14.70;4.70;;;;;;;22.36;39.59;100380.60;117044;1187;23651;-59
2022/09/22 10:22:53;;;;;;;7.20;2.40;;;;;;;22.16;39.67;100386.77;117075;1187;21853;-60
2022/09/22 10:25:24;;;;;;;8.60;2.80;;;;;;;22.00;40.01;100392.73;117218;1187;22837;-74
2022/09/22 10:28:14;;;;;;;8.20;3.40;;;;;;;21.88;39.84;100396.86;117068;1182;23567;-73
2022/09/22 10:30:44;;;;;;;5.90;2.50;;;;;;;21.77;39.92;100390.73;117120;1186;23581;-74
2022/09/22 10:33:19;;;;;;;3.50;1.70;;;;;;;21.74;40.24;100380.31;117236;1187;23454;-60
2022/09/22 10:35:53;;;;;;;3.50;1.60;;;;;;;21.73;40.26;100373.45;116940;1187;21935;-74
2022/09/22 10:38:23;;;;;;;2.70;1.40;;;;;;;21.77;40.80;100367.83;117021;1187;23595;-73
2022/09/22 10:41:06;;;;;;;3.90;1.80;;;;;;;21.90;40.26;100370.45;117052;1187;22478;-74
2022/09/22 10:43:44;;;;;;;2.50;1.80;;;;;;;22.02;40.46;100370.99;117019;1187;21911;-74
2022/09/22 10:46:37;;;;;;;4.50;1.60;;;;;;;22.13;40.25;100370.88;117119;1186;21859;-76
2022/09/22 10:50:01;;;;;;;1.90;1.40;;;;;;;22.18;39.07;100360.41;117096;1186;22765;-74
2022/09/22 10:52:41;;;;;;;3.70;1.80;;;;;;;22.10;39.42;100354.28;116770;1190;23006;-75
2022/09/22 10:55:29;;;;;;;4.80;1.70;;;;;;;22.06;39.72;100350.39;116682;1190;21849;-73
2022/09/22 10:58:08;;;;;;;3.60;1.80;;;;;;;22.04;39.61;100345.17;117078;1188;22621;-74
2022/09/22 11:00:39;;;;;;;4.60;1.60;;;;;;;22.10;39.94;100339.95;117151;1187;23554;-73
2022/09/22 11:03:06;;;;;;;;;;;;;;;22.36;40.40;100339.44;116990;1185;23621;-76
2022/09/22 11:12:34;;;;;;;7.10;1.80;;;;;;;22.80;36.78;100336.01;117092;1189;22920;-70
2022/09/22 11:14:48;;;;;;;15.40;3.00;;;;;;;22.59;37.95;100331.41;116930;1186;22811;-70
2022/09/22 11:17:31;;;;;;;9.00;5.10;;;;;;;22.47;38.41;100333.77;117054;1185;21915;-60
2022/09/22 11:20:26;;;;;;;17.90;5.20;;;;;;;22.36;38.67;100337.86;117082;1188;21851;-60
2022/09/22 11:23:02;;;;;;;5.40;2.60;;;;;;;22.24;38.76;100338.06;117188;1188;23580;-60
2022/09/22 11:25:42;;;;;;;3.40;1.90;;;;;;;22.14;38.64;100340.98;117234;1182;22628;-59
2022/09/22 11:28:46;;;;;;;3.20;1.60;;;;;;;21.97;38.17;100343.09;117245;1186;21859;-60
2022/09/22 11:31:30;;;;;;;3.30;1.90;;;;;;;21.75;38.46;100347.58;117169;1185;23554;-59
2022/09/22 11:34:21;;;;;;;3.30;1.40;;;;;;;21.57;38.26;100350.40;117074;1186;23633;-60
2022/09/22 11:37:26;;;;;;;3.10;1.60;;;;;;;21.45;38.62;100356.84;117130;1186;22908;-60
2022/09/22 11:40:00;;;;;;;3.40;1.90;;;;;;;21.45;38.84;100358.46;117324;1185;23552;-60
2022/09/22 11:42:37;;;;;;;7.40;1.90;;;;;;;21.40;39.10;100358.71;117328;1186;23595;-74
2022/09/22 11:45:42;;;;;;;4.40;1.90;;;;;;;21.34;38.82;100345.88;117374;1185;21863;-59
2022/09/22 11:48:42;;;;;;;2.10;1.30;;;;;;;21.27;39.35;100341.98;117324;1181;21869;-75
2022/09/22 11:51:30;;;;;;;5.20;2.00;;;;;;;21.27;39.08;100338.92;117110;1186;23586;-59
2022/09/22 11:54:03;;;;;;;2.10;1.40;;;;;;;21.26;38.88;100337.75;117157;1186;24274;-73
2022/09/22 11:57:06;;;;;;;3.90;1.80;;;;;;;21.26;38.76;100331.30;117166;1185;23596;-60